sensor_id;sensor_type;location;lat;lon;timestamp;pressure;altitude;pressure_sealevel;temperature;humidity
15193;BME280;7697;51.630;7.484;2023-02-28T00:04:57;102289.53;;;1.99;75.38
15193;BME280;7697;51.630;7.484;2023-02-28T00:10:02;102298.31;;;1.98;75.92
15193;BME280;7697;51.630;7.484;2023-02-28T00:15:06;102313.78;;;2.01;75.49
15193;BME280;7697;51.630;7.484;2023-02-28T00:20:11;102297.78;;;1.93;75.46
15193;BME280;7697;51.630;7.484;2023-02-28T00:25:16;102306.88;;;2.00;74.83
15193;BME280;7697;51.630;7.484;2023-02-28T00:30:19;102298.72;;;1.92;75.46
15193;BME280;7697;51.630;7.484;2023-02-28T00:35:23;102305.09;;;1.87;75.85
15193;BME280;7697;51.630;7.484;2023-02-28T00:40:24;102307.81;;;1.86;75.82
15193;BME280;7697;51.630;7.484;2023-02-28T00:45:26;102305.03;;;1.75;75.16
15193;BME280;7697;51.630;7.484;2023-02-28T00:50:29;102309.59;;;1.71;75.29
15193;BME280;7697;51.630;7.484;2023-02-28T00:55:31;102298.22;;;1.60;75.80
15193;BME280;7697;51.630;7.484;2023-02-28T01:00:33;102314.59;;;1.62;75.63
15193;BME280;7697;51.630;7.484;2023-02-28T01:05:38;102298.13;;;1.47;74.94
15193;BME280;7697;51.630;7.484;2023-02-28T01:10:41;102305.13;;;1.46;75.28
15193;BME280;7697;51.630;7.484;2023-02-28T01:15:46;102291.53;;;1.41;76.41
15193;BME280;7697;51.630;7.484;2023-02-28T01:20:52;102288.00;;;1.42;76.20
15193;BME280;7697;51.630;7.484;2023-02-28T01:25:53;102280.00;;;1.31;76.77
15193;BME280;7697;51.630;7.484;2023-02-28T01:30:55;102281.97;;;1.28;76.77
15193;BME280;7697;51.630;7.484;2023-02-28T01:35:59;102296.06;;;1.25;77.79
15193;BME280;7697;51.630;7.484;2023-02-28T01:41:01;102289.84;;;1.13;76.93
15193;BME280;7697;51.630;7.484;2023-02-28T01:46:03;102283.59;;;1.02;77.93
15193;BME280;7697;51.630;7.484;2023-02-28T01:51:09;102295.06;;;0.85;77.65
15193;BME280;7697;51.630;7.484;2023-02-28T01:56:16;102290.31;;;0.78;77.81
15193;BME280;7697;51.630;7.484;2023-02-28T02:01:21;102293.59;;;0.67;78.16
15193;BME280;7697;51.630;7.484;2023-02-28T02:06:29;102296.28;;;0.65;78.52
15193;BME280;7697;51.630;7.484;2023-02-28T02:11:32;102280.84;;;0.62;78.32
15193;BME280;7697;51.630;7.484;2023-02-28T02:16:46;102275.81;;;0.59;78.71
15193;BME280;7697;51.630;7.484;2023-02-28T02:22:16;102275.44;;;0.51;77.78
15193;BME280;7697;51.630;7.484;2023-02-28T02:27:34;102273.38;;;0.42;78.64
15193;BME280;7697;51.630;7.484;2023-02-28T02:38:09;102275.09;;;0.27;77.89
15193;BME280;7697;51.630;7.484;2023-02-28T02:43:16;102278.91;;;0.22;78.63
15193;BME280;7697;51.630;7.484;2023-02-28T02:48:23;102277.59;;;0.15;79.32
15193;BME280;7697;51.630;7.484;2023-02-28T02:53:30;102281.06;;;0.15;78.68
15193;BME280;7697;51.630;7.484;2023-02-28T02:58:37;102273.41;;;0.12;79.15
15193;BME280;7697;51.630;7.484;2023-02-28T03:03:43;102275.84;;;0.15;78.30
15193;BME280;7697;51.630;7.484;2023-02-28T03:08:46;102290.63;;;0.15;78.89
15193;BME280;7697;51.630;7.484;2023-02-28T03:13:59;102275.00;;;0.15;79.06
15193;BME280;7697;51.630;7.484;2023-02-28T03:24:40;102267.28;;;0.13;78.46
15193;BME280;7697;51.630;7.484;2023-02-28T03:29:48;102271.25;;;0.05;78.37
15193;BME280;7697;51.630;7.484;2023-02-28T03:34:57;102281.19;;;-0.02;78.79
15193;BME280;7697;51.630;7.484;2023-02-28T03:40:09;102278.75;;;-0.05;78.38
15193;BME280;7697;51.630;7.484;2023-02-28T03:45:16;102291.28;;;-0.12;79.23
15193;BME280;7697;51.630;7.484;2023-02-28T03:50:22;102277.13;;;-0.22;79.23
15193;BME280;7697;51.630;7.484;2023-02-28T03:55:28;102287.53;;;-0.22;78.85
15193;BME280;7697;51.630;7.484;2023-02-28T04:00:35;102282.84;;;-0.31;78.76
15193;BME280;7697;51.630;7.484;2023-02-28T04:05:48;102276.31;;;-0.38;78.74
15193;BME280;7697;51.630;7.484;2023-02-28T04:10:56;102278.25;;;-0.42;78.81
15193;BME280;7697;51.630;7.484;2023-02-28T04:15:59;102290.25;;;-0.39;78.54
15193;BME280;7697;51.630;7.484;2023-02-28T04:21:01;102290.50;;;-0.44;79.26
15193;BME280;7697;51.630;7.484;2023-02-28T04:26:04;102282.13;;;-0.49;78.77
15193;BME280;7697;51.630;7.484;2023-02-28T04:31:06;102288.53;;;-0.54;78.38
15193;BME280;7697;51.630;7.484;2023-02-28T04:36:08;102297.28;;;-0.41;79.41
15193;BME280;7697;51.630;7.484;2023-02-28T04:41:12;102291.41;;;-0.45;79.31
15193;BME280;7697;51.630;7.484;2023-02-28T04:46:14;102293.94;;;-0.43;78.98
15193;BME280;7697;51.630;7.484;2023-02-28T04:51:18;102289.09;;;-0.49;78.69
15193;BME280;7697;51.630;7.484;2023-02-28T04:56:22;102300.41;;;-0.50;79.12
15193;BME280;7697;51.630;7.484;2023-02-28T05:01:26;102281.78;;;-0.58;80.00
15193;BME280;7697;51.630;7.484;2023-02-28T05:06:29;102280.47;;;-0.65;80.32
15193;BME280;7697;51.630;7.484;2023-02-28T05:11:34;102295.16;;;-0.64;80.11
15193;BME280;7697;51.630;7.484;2023-02-28T05:16:36;102291.38;;;-0.74;80.03
15193;BME280;7697;51.630;7.484;2023-02-28T05:21:39;102303.38;;;-0.72;80.85
15193;BME280;7697;51.630;7.484;2023-02-28T05:26:42;102298.56;;;-0.80;81.00
15193;BME280;7697;51.630;7.484;2023-02-28T05:31:44;102301.28;;;-0.81;80.60
15193;BME280;7697;51.630;7.484;2023-02-28T05:36:46;102290.75;;;-0.95;80.51
15193;BME280;7697;51.630;7.484;2023-02-28T05:41:49;102301.50;;;-1.01;80.06
15193;BME280;7697;51.630;7.484;2023-02-28T05:46:51;102309.69;;;-1.09;80.55
15193;BME280;7697;51.630;7.484;2023-02-28T05:51:53;102304.66;;;-1.12;80.56
15193;BME280;7697;51.630;7.484;2023-02-28T05:56:56;102318.91;;;-1.03;81.48
15193;BME280;7697;51.630;7.484;2023-02-28T06:01:58;102324.38;;;-1.08;81.46
15193;BME280;7697;51.630;7.484;2023-02-28T06:07:00;102315.31;;;-1.17;81.25
15193;BME280;7697;51.630;7.484;2023-02-28T06:12:05;102334.16;;;-1.13;81.23
15193;BME280;7697;51.630;7.484;2023-02-28T06:17:09;102333.88;;;-1.24;80.86
15193;BME280;7697;51.630;7.484;2023-02-28T06:22:11;102342.91;;;-1.31;81.39
15193;BME280;7697;51.630;7.484;2023-02-28T06:27:14;102347.34;;;-1.33;82.06
15193;BME280;7697;51.630;7.484;2023-02-28T06:32:16;102337.66;;;-1.47;81.66
15193;BME280;7697;51.630;7.484;2023-02-28T06:37:17;102323.59;;;-1.60;81.96
15193;BME280;7697;51.630;7.484;2023-02-28T06:42:21;102327.88;;;-1.59;82.99
15193;BME280;7697;51.630;7.484;2023-02-28T06:47:25;102350.88;;;-1.52;82.71
15193;BME280;7697;51.630;7.484;2023-02-28T06:52:26;102349.94;;;-1.51;82.38
15193;BME280;7697;51.630;7.484;2023-02-28T06:57:30;102349.69;;;-1.62;82.50
15193;BME280;7697;51.630;7.484;2023-02-28T07:02:35;102342.88;;;-1.64;83.00
15193;BME280;7697;51.630;7.484;2023-02-28T07:07:37;102343.16;;;-1.36;83.11
15193;BME280;7697;51.630;7.484;2023-02-28T07:12:45;102352.78;;;-1.05;82.73
15193;BME280;7697;51.630;7.484;2023-02-28T07:17:47;102350.81;;;-0.84;82.28
15193;BME280;7697;51.630;7.484;2023-02-28T07:22:48;102349.66;;;-0.79;82.61
15193;BME280;7697;51.630;7.484;2023-02-28T07:27:57;102355.69;;;-0.78;82.42
15193;BME280;7697;51.630;7.484;2023-02-28T07:33:00;102382.38;;;-0.74;82.88
15193;BME280;7697;51.630;7.484;2023-02-28T07:38:03;102384.38;;;-0.80;82.12
15193;BME280;7697;51.630;7.484;2023-02-28T07:43:06;102388.25;;;-0.71;82.80
15193;BME280;7697;51.630;7.484;2023-02-28T07:48:08;102376.00;;;-0.53;83.56
15193;BME280;7697;51.630;7.484;2023-02-28T07:53:10;102382.09;;;-0.21;82.40
15193;BME280;7697;51.630;7.484;2023-02-28T07:58:13;102375.13;;;0.09;81.21
15193;BME280;7697;51.630;7.484;2023-02-28T08:03:16;102373.16;;;0.44;81.00
15193;BME280;7697;51.630;7.484;2023-02-28T08:08:18;102389.41;;;0.78;79.53
15193;BME280;7697;51.630;7.484;2023-02-28T08:13:21;102391.09;;;1.21;79.63
15193;BME280;7697;51.630;7.484;2023-02-28T08:18:23;102395.28;;;1.52;78.01
15193;BME280;7697;51.630;7.484;2023-02-28T08:23:25;102388.94;;;1.83;76.67
15193;BME280;7697;51.630;7.484;2023-02-28T08:28:28;102378.06;;;2.03;75.54
15193;BME280;7697;51.630;7.484;2023-02-28T08:33:30;102394.25;;;2.35;75.27
15193;BME280;7697;51.630;7.484;2023-02-28T08:38:32;102382.81;;;2.63;73.88
15193;BME280;7697;51.630;7.484;2023-02-28T08:43:36;102381.34;;;2.97;72.61
15193;BME280;7697;51.630;7.484;2023-02-28T08:48:38;102383.00;;;3.36;71.54
15193;BME280;7697;51.630;7.484;2023-02-28T08:53:40;102385.66;;;3.60;69.25
15193;BME280;7697;51.630;7.484;2023-02-28T08:58:43;102380.84;;;3.90;67.85
15193;BME280;7697;51.630;7.484;2023-02-28T09:03:46;102396.16;;;4.31;66.65
15193;BME280;7697;51.630;7.484;2023-02-28T09:08:49;102378.56;;;4.44;65.59
15193;BME280;7697;51.630;7.484;2023-02-28T09:13:52;102387.56;;;4.75;65.64
15193;BME280;7697;51.630;7.484;2023-02-28T09:18:55;102390.63;;;5.26;64.70
15193;BME280;7697;51.630;7.484;2023-02-28T09:23:57;102365.88;;;5.51;62.15
15193;BME280;7697;51.630;7.484;2023-02-28T09:29:00;102376.19;;;5.86;60.91
15193;BME280;7697;51.630;7.484;2023-02-28T09:34:04;102363.13;;;6.07;60.46
15193;BME280;7697;51.630;7.484;2023-02-28T09:39:05;102368.13;;;6.42;59.85
15193;BME280;7697;51.630;7.484;2023-02-28T09:44:13;102372.63;;;6.51;56.50
15193;BME280;7697;51.630;7.484;2023-02-28T09:49:21;102372.94;;;6.78;56.80
15193;BME280;7697;51.630;7.484;2023-02-28T09:54:28;102390.03;;;7.14;54.98
15193;BME280;7697;51.630;7.484;2023-02-28T09:59:53;102395.06;;;7.27;53.61
15193;BME280;7697;51.630;7.484;2023-02-28T10:05:01;102377.69;;;7.55;54.27
15193;BME280;7697;51.630;7.484;2023-02-28T10:10:17;102383.41;;;7.79;51.80
15193;BME280;7697;51.630;7.484;2023-02-28T10:15:25;102385.53;;;7.85;49.81
15193;BME280;7697;51.630;7.484;2023-02-28T10:20:32;102375.63;;;7.59;50.61
15193;BME280;7697;51.630;7.484;2023-02-28T10:25:37;102378.63;;;7.44;50.16
15193;BME280;7697;51.630;7.484;2023-02-28T10:30:43;102373.69;;;7.80;48.89
15193;BME280;7697;51.630;7.484;2023-02-28T10:35:45;102367.06;;;8.24;50.09
15193;BME280;7697;51.630;7.484;2023-02-28T10:40:47;102361.41;;;8.38;46.68
15193;BME280;7697;51.630;7.484;2023-02-28T10:45:57;102355.84;;;8.22;46.01
15193;BME280;7697;51.630;7.484;2023-02-28T10:51:00;102367.09;;;8.34;45.98
15193;BME280;7697;51.630;7.484;2023-02-28T10:56:12;102360.44;;;8.39;46.16
15193;BME280;7697;51.630;7.484;2023-02-28T11:01:20;102357.59;;;8.70;44.54
15193;BME280;7697;51.630;7.484;2023-02-28T11:06:24;102360.31;;;8.87;44.53
15193;BME280;7697;51.630;7.484;2023-02-28T11:11:29;102339.16;;;8.97;45.99
15193;BME280;7697;51.630;7.484;2023-02-28T11:16:35;102340.19;;;9.14;44.62
15193;BME280;7697;51.630;7.484;2023-02-28T11:21:38;102350.69;;;9.33;44.79
15193;BME280;7697;51.630;7.484;2023-02-28T11:26:44;102366.16;;;9.28;44.49
15193;BME280;7697;51.630;7.484;2023-02-28T11:32:13;102353.72;;;9.38;44.38
15193;BME280;7697;51.630;7.484;2023-02-28T11:37:18;102335.44;;;9.45;44.19
15193;BME280;7697;51.630;7.484;2023-02-28T11:42:35;102340.78;;;9.62;45.24
15193;BME280;7697;51.630;7.484;2023-02-28T11:47:48;102334.81;;;9.78;45.77
15193;BME280;7697;51.630;7.484;2023-02-28T11:52:57;102324.94;;;9.08;45.01
15193;BME280;7697;51.630;7.484;2023-02-28T11:58:17;102339.44;;;8.28;47.24
15193;BME280;7697;51.630;7.484;2023-02-28T12:03:37;102329.88;;;8.37;47.69
15193;BME280;7697;51.630;7.484;2023-02-28T12:08:51;102320.53;;;8.89;47.66
15193;BME280;7697;51.630;7.484;2023-02-28T12:14:18;102309.16;;;9.16;47.35
15193;BME280;7697;51.630;7.484;2023-02-28T12:19:34;102293.88;;;9.37;46.78
15193;BME280;7697;51.630;7.484;2023-02-28T12:25:08;102298.44;;;9.17;45.94
15193;BME280;7697;51.630;7.484;2023-02-28T12:30:17;102293.84;;;8.55;47.69
15193;BME280;7697;51.630;7.484;2023-02-28T12:35:25;102289.41;;;8.46;48.47
15193;BME280;7697;51.630;7.484;2023-02-28T12:40:43;102290.69;;;8.32;49.54
15193;BME280;7697;51.630;7.484;2023-02-28T12:45:49;102294.56;;;8.18;50.32
15193;BME280;7697;51.630;7.484;2023-02-28T12:50:54;102277.78;;;7.81;49.38
15193;BME280;7697;51.630;7.484;2023-02-28T12:56:05;102281.25;;;7.81;50.89
15193;BME280;7697;51.630;7.484;2023-02-28T13:01:27;102276.81;;;7.63;49.76
15193;BME280;7697;51.630;7.484;2023-02-28T13:06:49;102264.03;;;7.97;49.62
15193;BME280;7697;51.630;7.484;2023-02-28T13:11:58;102258.44;;;8.28;49.07
15193;BME280;7697;51.630;7.484;2023-02-28T13:17:09;102259.88;;;8.70;49.97
15193;BME280;7697;51.630;7.484;2023-02-28T13:22:37;102246.34;;;8.82;48.55
15193;BME280;7697;51.630;7.484;2023-02-28T13:27:40;102239.84;;;8.30;48.74
15193;BME280;7697;51.630;7.484;2023-02-28T13:32:43;102246.13;;;8.00;50.21
15193;BME280;7697;51.630;7.484;2023-02-28T13:37:47;102249.72;;;8.18;49.86
15193;BME280;7697;51.630;7.484;2023-02-28T13:42:52;102235.88;;;8.53;49.74
15193;BME280;7697;51.630;7.484;2023-02-28T13:47:56;102228.16;;;8.33;48.68
15193;BME280;7697;51.630;7.484;2023-02-28T13:53:32;102218.69;;;8.49;49.59
15193;BME280;7697;51.630;7.484;2023-02-28T13:58:48;102225.47;;;8.79;48.98
15193;BME280;7697;51.630;7.484;2023-02-28T14:04:06;102222.38;;;8.93;48.83
15193;BME280;7697;51.630;7.484;2023-02-28T14:09:21;102225.03;;;9.11;49.24
15193;BME280;7697;51.630;7.484;2023-02-28T14:14:53;102223.66;;;9.07;47.77
15193;BME280;7697;51.630;7.484;2023-02-28T14:19:57;102229.41;;;9.02;49.12
15193;BME280;7697;51.630;7.484;2023-02-28T14:25:10;102211.91;;;9.19;50.17
15193;BME280;7697;51.630;7.484;2023-02-28T14:30:56;102222.66;;;9.35;50.54
15193;BME280;7697;51.630;7.484;2023-02-28T14:36:04;102229.25;;;9.04;49.24
15193;BME280;7697;51.630;7.484;2023-02-28T14:41:17;102223.00;;;8.78;50.58
15193;BME280;7697;51.630;7.484;2023-02-28T14:46:23;102218.53;;;8.78;51.01
15193;BME280;7697;51.630;7.484;2023-02-28T14:51:28;102202.31;;;8.73;50.76
15193;BME280;7697;51.630;7.484;2023-02-28T14:56:34;102205.50;;;8.77;49.53
15193;BME280;7697;51.630;7.484;2023-02-28T15:01:37;102195.97;;;8.66;49.69
15193;BME280;7697;51.630;7.484;2023-02-28T15:06:38;102205.91;;;8.45;50.25
15193;BME280;7697;51.630;7.484;2023-02-28T15:11:46;102195.97;;;8.19;50.27
15193;BME280;7697;51.630;7.484;2023-02-28T15:16:52;102192.66;;;7.98;50.84
15193;BME280;7697;51.630;7.484;2023-02-28T15:22:00;102189.47;;;8.04;50.93
15193;BME280;7697;51.630;7.484;2023-02-28T15:27:07;102196.25;;;8.16;50.14
15193;BME280;7697;51.630;7.484;2023-02-28T15:32:23;102200.31;;;8.01;50.79
15193;BME280;7697;51.630;7.484;2023-02-28T15:37:37;102192.69;;;7.88;49.98
15193;BME280;7697;51.630;7.484;2023-02-28T15:42:42;102203.41;;;7.77;50.64
15193;BME280;7697;51.630;7.484;2023-02-28T15:47:45;102194.41;;;7.51;50.66
15193;BME280;7697;51.630;7.484;2023-02-28T15:52:47;102183.31;;;7.38;50.99
15193;BME280;7697;51.630;7.484;2023-02-28T15:57:54;102189.13;;;7.32;52.35
15193;BME280;7697;51.630;7.484;2023-02-28T16:02:57;102197.44;;;7.37;52.44
15193;BME280;7697;51.630;7.484;2023-02-28T16:08:00;102202.69;;;7.27;51.87
15193;BME280;7697;51.630;7.484;2023-02-28T16:13:04;102208.41;;;7.23;52.40
15193;BME280;7697;51.630;7.484;2023-02-28T16:18:08;102186.31;;;7.04;52.38
15193;BME280;7697;51.630;7.484;2023-02-28T16:23:11;102208.63;;;7.00;52.85
15193;BME280;7697;51.630;7.484;2023-02-28T16:28:19;102210.56;;;6.89;53.74
15193;BME280;7697;51.630;7.484;2023-02-28T16:33:22;102213.00;;;6.81;53.64
15193;BME280;7697;51.630;7.484;2023-02-28T16:38:23;102202.59;;;6.69;53.93
15193;BME280;7697;51.630;7.484;2023-02-28T16:43:28;102221.69;;;6.71;54.18
15193;BME280;7697;51.630;7.484;2023-02-28T16:48:29;102216.28;;;6.63;54.58
15193;BME280;7697;51.630;7.484;2023-02-28T16:53:32;102204.69;;;6.45;54.21
15193;BME280;7697;51.630;7.484;2023-02-28T16:58:35;102218.44;;;6.49;54.39
15193;BME280;7697;51.630;7.484;2023-02-28T17:03:37;102226.53;;;6.36;55.14
15193;BME280;7697;51.630;7.484;2023-02-28T17:08:40;102221.22;;;6.26;55.19
15193;BME280;7697;51.630;7.484;2023-02-28T17:13:43;102229.38;;;6.23;55.93
15193;BME280;7697;51.630;7.484;2023-02-28T17:18:45;102226.13;;;6.10;56.27
15193;BME280;7697;51.630;7.484;2023-02-28T17:23:47;102233.56;;;6.05;57.08
15193;BME280;7697;51.630;7.484;2023-02-28T17:28:51;102238.38;;;6.00;57.26
15193;BME280;7697;51.630;7.484;2023-02-28T17:33:55;102230.06;;;5.84;58.11
15193;BME280;7697;51.630;7.484;2023-02-28T17:38:58;102243.84;;;5.76;58.81
15193;BME280;7697;51.630;7.484;2023-02-28T17:44:01;102252.34;;;5.69;58.91
15193;BME280;7697;51.630;7.484;2023-02-28T17:49:03;102248.94;;;5.57;58.94
15193;BME280;7697;51.630;7.484;2023-02-28T17:54:06;102251.59;;;5.46;59.21
15193;BME280;7697;51.630;7.484;2023-02-28T17:59:09;102249.97;;;5.34;59.65
15193;BME280;7697;51.630;7.484;2023-02-28T18:04:12;102234.34;;;5.21;60.25
15193;BME280;7697;51.630;7.484;2023-02-28T18:09:15;102247.75;;;5.18;60.33
15193;BME280;7697;51.630;7.484;2023-02-28T18:14:20;102244.53;;;5.03;59.96
15193;BME280;7697;51.630;7.484;2023-02-28T18:19:23;102256.38;;;4.98;60.46
15193;BME280;7697;51.630;7.484;2023-02-28T18:24:25;102239.56;;;4.78;61.12
15193;BME280;7697;51.630;7.484;2023-02-28T18:29:29;102254.56;;;4.76;61.10
15193;BME280;7697;51.630;7.484;2023-02-28T18:34:32;102265.56;;;4.70;61.31
15193;BME280;7697;51.630;7.484;2023-02-28T18:39:34;102257.22;;;4.65;61.69
15193;BME280;7697;51.630;7.484;2023-02-28T18:44:37;102260.81;;;4.64;61.44
15193;BME280;7697;51.630;7.484;2023-02-28T18:49:39;102240.97;;;4.48;61.70
15193;BME280;7697;51.630;7.484;2023-02-28T18:54:41;102260.66;;;4.54;62.15
15193;BME280;7697;51.630;7.484;2023-02-28T18:59:44;102257.81;;;4.46;62.49
15193;BME280;7697;51.630;7.484;2023-02-28T19:04:46;102249.91;;;4.35;62.73
15193;BME280;7697;51.630;7.484;2023-02-28T19:09:48;102246.69;;;4.20;62.89
15193;BME280;7697;51.630;7.484;2023-02-28T19:14:51;102253.56;;;4.21;63.75
15193;BME280;7697;51.630;7.484;2023-02-28T19:19:53;102258.56;;;4.13;64.05
15193;BME280;7697;51.630;7.484;2023-02-28T19:24:55;102246.28;;;4.02;64.28
15193;BME280;7697;51.630;7.484;2023-02-28T19:29:58;102251.13;;;3.96;64.59
15193;BME280;7697;51.630;7.484;2023-02-28T19:35:00;102270.81;;;4.01;64.92
15193;BME280;7697;51.630;7.484;2023-02-28T19:40:02;102258.16;;;3.95;64.81
15193;BME280;7697;51.630;7.484;2023-02-28T19:45:06;102268.38;;;3.87;65.43
15193;BME280;7697;51.630;7.484;2023-02-28T19:50:09;102272.31;;;3.82;65.35
15193;BME280;7697;51.630;7.484;2023-02-28T19:55:11;102277.88;;;3.77;65.47
15193;BME280;7697;51.630;7.484;2023-02-28T20:00:15;102284.88;;;3.76;65.88
15193;BME280;7697;51.630;7.484;2023-02-28T20:05:18;102269.56;;;3.59;65.46
15193;BME280;7697;51.630;7.484;2023-02-28T20:10:20;102274.31;;;3.54;66.04
15193;BME280;7697;51.630;7.484;2023-02-28T20:15:23;102280.28;;;3.56;65.76
15193;BME280;7697;51.630;7.484;2023-02-28T20:20:26;102280.50;;;3.53;66.43
15193;BME280;7697;51.630;7.484;2023-02-28T20:25:28;102271.31;;;3.48;66.13
15193;BME280;7697;51.630;7.484;2023-02-28T20:30:32;102262.00;;;3.44;66.67
15193;BME280;7697;51.630;7.484;2023-02-28T20:35:34;102253.03;;;3.35;67.02
15193;BME280;7697;51.630;7.484;2023-02-28T20:40:36;102266.75;;;3.38;66.71
15193;BME280;7697;51.630;7.484;2023-02-28T20:45:49;102279.00;;;3.38;67.22
15193;BME280;7697;51.630;7.484;2023-02-28T20:50:54;102267.31;;;3.31;66.91
15193;BME280;7697;51.630;7.484;2023-02-28T20:55:57;102279.66;;;3.29;67.03
15193;BME280;7697;51.630;7.484;2023-02-28T21:01:03;102277.59;;;3.21;67.26
15193;BME280;7697;51.630;7.484;2023-02-28T21:06:12;102268.91;;;3.08;67.53
15193;BME280;7697;51.630;7.484;2023-02-28T21:11:17;102278.09;;;3.14;67.61
15193;BME280;7697;51.630;7.484;2023-02-28T21:16:23;102270.91;;;3.05;67.61
15193;BME280;7697;51.630;7.484;2023-02-28T21:21:26;102275.34;;;2.91;67.52
15193;BME280;7697;51.630;7.484;2023-02-28T21:26:28;102276.50;;;2.87;68.59
15193;BME280;7697;51.630;7.484;2023-02-28T21:31:33;102272.63;;;2.80;68.50
15193;BME280;7697;51.630;7.484;2023-02-28T21:36:37;102278.81;;;2.79;68.57
15193;BME280;7697;51.630;7.484;2023-02-28T21:41:40;102281.13;;;2.84;68.37
15193;BME280;7697;51.630;7.484;2023-02-28T21:46:43;102279.03;;;2.76;68.67
15193;BME280;7697;51.630;7.484;2023-02-28T21:51:46;102269.22;;;2.67;68.67
15193;BME280;7697;51.630;7.484;2023-02-28T21:56:47;102272.38;;;2.59;68.69
15193;BME280;7697;51.630;7.484;2023-02-28T22:01:51;102285.94;;;2.64;68.66
15193;BME280;7697;51.630;7.484;2023-02-28T22:06:55;102279.25;;;2.48;69.62
15193;BME280;7697;51.630;7.484;2023-02-28T22:11:57;102283.66;;;2.47;69.41
15193;BME280;7697;51.630;7.484;2023-02-28T22:17:00;102283.63;;;2.35;70.26
15193;BME280;7697;51.630;7.484;2023-02-28T22:22:02;102272.84;;;2.26;70.33
15193;BME280;7697;51.630;7.484;2023-02-28T22:27:04;102267.84;;;2.23;69.39
15193;BME280;7697;51.630;7.484;2023-02-28T22:32:08;102287.41;;;2.31;70.36
15193;BME280;7697;51.630;7.484;2023-02-28T22:37:10;102284.47;;;2.22;70.48
15193;BME280;7697;51.630;7.484;2023-02-28T22:42:12;102259.16;;;2.10;70.90
15193;BME280;7697;51.630;7.484;2023-02-28T22:47:15;102281.00;;;2.09;70.64
15193;BME280;7697;51.630;7.484;2023-02-28T22:52:17;102291.94;;;2.02;71.21
15193;BME280;7697;51.630;7.484;2023-02-28T22:57:19;102292.75;;;1.89;71.81
15193;BME280;7697;51.630;7.484;2023-02-28T23:02:22;102294.00;;;1.84;71.53
15193;BME280;7697;51.630;7.484;2023-02-28T23:07:24;102296.28;;;1.76;71.67
15193;BME280;7697;51.630;7.484;2023-02-28T23:12:26;102289.53;;;1.59;71.91
15193;BME280;7697;51.630;7.484;2023-02-28T23:17:29;102295.97;;;1.54;72.00
15193;BME280;7697;51.630;7.484;2023-02-28T23:22:31;102285.19;;;1.45;71.65
15193;BME280;7697;51.630;7.484;2023-02-28T23:27:33;102291.06;;;1.49;72.48
15193;BME280;7697;51.630;7.484;2023-02-28T23:32:37;102300.00;;;1.45;72.83
15193;BME280;7697;51.630;7.484;2023-02-28T23:37:39;102298.44;;;1.42;72.29
15193;BME280;7697;51.630;7.484;2023-02-28T23:42:41;102302.00;;;1.41;72.40
15193;BME280;7697;51.630;7.484;2023-02-28T23:47:45;102306.47;;;1.39;72.94
15193;BME280;7697;51.630;7.484;2023-02-28T23:52:47;102296.28;;;1.35;72.28
15193;BME280;7697;51.630;7.484;2023-02-28T23:57:49;102298.47;;;1.28;72.60
